sensor_id;sensor_type;location;lat;lon;timestamp;pressure;altitude;pressure_sealevel;temperature;humidity
72086;BME280;64750;52.134;5.424;2023-09-19T00:00:44;100880.50;;;16.81;82.44
72086;BME280;64750;52.134;5.424;2023-09-19T00:03:14;100876.31;;;16.79;82.70
72086;BME280;64750;52.134;5.424;2023-09-19T00:05:41;100875.63;;;16.77;82.38
72086;BME280;64750;52.134;5.424;2023-09-19T00:08:10;100884.41;;;16.77;82.58
72086;BME280;64750;52.134;5.424;2023-09-19T00:10:39;100886.34;;;16.75;82.10
72086;BME280;64750;52.134;5.424;2023-09-19T00:13:08;100888.31;;;16.73;82.21
72086;BME280;64750;52.134;5.424;2023-09-19T00:15:44;100897.25;;;16.72;82.31
72086;BME280;64750;52.134;5.424;2023-09-19T00:18:18;100894.00;;;16.68;81.52
72086;BME280;64750;52.134;5.424;2023-09-19T00:20:48;100900.28;;;16.67;81.76
72086;BME280;64750;52.134;5.424;2023-09-19T00:23:16;100898.47;;;16.68;81.88
72086;BME280;64750;52.134;5.424;2023-09-19T00:25:43;100896.94;;;16.65;81.77
72086;BME280;64750;52.134;5.424;2023-09-19T00:28:09;100888.97;;;16.65;81.73
72086;BME280;64750;52.134;5.424;2023-09-19T00:30:36;100893.56;;;16.63;81.90
72086;BME280;64750;52.134;5.424;2023-09-19T00:33:05;100895.25;;;16.64;81.90
72086;BME280;64750;52.134;5.424;2023-09-19T00:35:33;100899.81;;;16.62;81.41
72086;BME280;64750;52.134;5.424;2023-09-19T00:38:00;100904.44;;;16.60;81.99
72086;BME280;64750;52.134;5.424;2023-09-19T00:40:28;100901.06;;;16.58;82.09
72086;BME280;64750;52.134;5.424;2023-09-19T00:42:58;100898.41;;;16.58;81.87
72086;BME280;64750;52.134;5.424;2023-09-19T00:45:27;100897.69;;;16.56;82.06
72086;BME280;64750;52.134;5.424;2023-09-19T00:47:55;100906.38;;;16.58;82.10
72086;BME280;64750;52.134;5.424;2023-09-19T00:50:25;100900.22;;;16.58;82.21
72086;BME280;64750;52.134;5.424;2023-09-19T00:52:55;100908.19;;;16.58;82.52
72086;BME280;64750;52.134;5.424;2023-09-19T00:55:23;100908.31;;;16.56;82.60
72086;BME280;64750;52.134;5.424;2023-09-19T00:57:51;100904.69;;;16.57;82.49
72086;BME280;64750;52.134;5.424;2023-09-19T01:00:17;100916.41;;;16.54;82.68
72086;BME280;64750;52.134;5.424;2023-09-19T01:02:46;100915.56;;;16.54;82.77
72086;BME280;64750;52.134;5.424;2023-09-19T01:05:14;100924.50;;;16.53;82.89
72086;BME280;64750;52.134;5.424;2023-09-19T01:07:41;100919.19;;;16.53;83.23
72086;BME280;64750;52.134;5.424;2023-09-19T01:10:10;100926.19;;;16.54;83.12
72086;BME280;64750;52.134;5.424;2023-09-19T01:20:45;100919.19;;;16.53;83.10
72086;BME280;64750;52.134;5.424;2023-09-19T01:31:46;100925.47;;;16.52;82.97
72086;BME280;64750;52.134;5.424;2023-09-19T01:34:13;100921.97;;;16.51;82.95
72086;BME280;64750;52.134;5.424;2023-09-19T01:36:40;100925.59;;;16.50;83.05
72086;BME280;64750;52.134;5.424;2023-09-19T01:39:10;100923.75;;;16.51;83.11
72086;BME280;64750;52.134;5.424;2023-09-19T01:41:51;100925.59;;;16.50;83.49
72086;BME280;64750;52.134;5.424;2023-09-19T01:47:16;100930.31;;;16.47;83.62
72086;BME280;64750;52.134;5.424;2023-09-19T01:49:59;100927.66;;;16.47;83.72
72086;BME280;64750;52.134;5.424;2023-09-19T01:52:31;100930.31;;;16.47;83.57
72086;BME280;64750;52.134;5.424;2023-09-19T01:55:08;100933.94;;;16.46;83.65
72086;BME280;64750;52.134;5.424;2023-09-19T01:57:46;100935.88;;;16.44;83.80
72086;BME280;64750;52.134;5.424;2023-09-19T02:00:18;100942.16;;;16.43;83.65
72086;BME280;64750;52.134;5.424;2023-09-19T02:02:47;100937.81;;;16.42;83.44
72086;BME280;64750;52.134;5.424;2023-09-19T02:05:22;100934.47;;;16.39;83.63
72086;BME280;64750;52.134;5.424;2023-09-19T02:07:51;100937.13;;;16.39;83.57
72086;BME280;64750;52.134;5.424;2023-09-19T02:10:19;100934.56;;;16.38;83.57
72086;BME280;64750;52.134;5.424;2023-09-19T02:12:46;100936.25;;;16.39;83.53
72086;BME280;64750;52.134;5.424;2023-09-19T02:15:13;100938.91;;;16.39;83.60
72086;BME280;64750;52.134;5.424;2023-09-19T02:17:42;100928.44;;;16.37;83.40
72086;BME280;64750;52.134;5.424;2023-09-19T02:20:12;100928.28;;;16.39;83.08
72086;BME280;64750;52.134;5.424;2023-09-19T02:22:42;100923.97;;;16.38;83.05
72086;BME280;64750;52.134;5.424;2023-09-19T02:25:08;100933.00;;;16.35;82.86
72086;BME280;64750;52.134;5.424;2023-09-19T02:27:35;100938.44;;;16.34;82.73
72086;BME280;64750;52.134;5.424;2023-09-19T02:30:02;100938.72;;;16.31;82.91
72086;BME280;64750;52.134;5.424;2023-09-19T02:32:30;100938.84;;;16.29;82.71
72086;BME280;64750;52.134;5.424;2023-09-19T02:34:57;100943.28;;;16.29;82.41
72086;BME280;64750;52.134;5.424;2023-09-19T02:37:25;100940.78;;;16.27;82.16
72086;BME280;64750;52.134;5.424;2023-09-19T02:39:51;100949.81;;;16.24;82.21
72086;BME280;64750;52.134;5.424;2023-09-19T02:42:18;100949.81;;;16.24;81.63
72086;BME280;64750;52.134;5.424;2023-09-19T02:44:44;100941.00;;;16.24;81.60
72086;BME280;64750;52.134;5.424;2023-09-19T02:47:13;100946.84;;;16.18;80.98
72086;BME280;64750;52.134;5.424;2023-09-19T02:49:41;100943.59;;;16.14;81.16
72086;BME280;64750;52.134;5.424;2023-09-19T02:52:09;100946.13;;;16.16;81.26
72086;BME280;64750;52.134;5.424;2023-09-19T02:54:37;100947.09;;;16.15;81.02
72086;BME280;64750;52.134;5.424;2023-09-19T02:57:04;100950.69;;;16.14;80.90
72086;BME280;64750;52.134;5.424;2023-09-19T02:59:32;100950.00;;;16.12;80.56
72086;BME280;64750;52.134;5.424;2023-09-19T03:01:59;100949.28;;;16.10;80.19
72086;BME280;64750;52.134;5.424;2023-09-19T03:04:27;100954.84;;;16.06;80.33
72086;BME280;64750;52.134;5.424;2023-09-19T03:06:54;100949.53;;;16.06;79.84
72086;BME280;64750;52.134;5.424;2023-09-19T03:09:24;100946.16;;;16.04;79.99
72086;BME280;64750;52.134;5.424;2023-09-19T03:11:51;100942.69;;;16.04;79.69
72086;BME280;64750;52.134;5.424;2023-09-19T03:14:17;100942.22;;;15.99;78.91
72086;BME280;64750;52.134;5.424;2023-09-19T03:16:46;100942.34;;;15.97;79.21
72086;BME280;64750;52.134;5.424;2023-09-19T03:19:13;100948.47;;;15.98;79.25
72086;BME280;64750;52.134;5.424;2023-09-19T03:21:41;100940.78;;;15.95;79.05
72086;BME280;64750;52.134;5.424;2023-09-19T03:24:08;100948.25;;;15.89;78.29
72086;BME280;64750;52.134;5.424;2023-09-19T03:26:34;100945.84;;;15.86;78.60
72086;BME280;64750;52.134;5.424;2023-09-19T03:29:03;100942.50;;;15.84;78.56
72086;BME280;64750;52.134;5.424;2023-09-19T03:31:32;100954.88;;;15.84;78.32
72086;BME280;64750;52.134;5.424;2023-09-19T03:33:59;100947.91;;;15.83;78.30
72086;BME280;64750;52.134;5.424;2023-09-19T03:36:25;100953.19;;;15.83;78.18
72086;BME280;64750;52.134;5.424;2023-09-19T03:38:54;100951.72;;;15.79;77.64
72086;BME280;64750;52.134;5.424;2023-09-19T03:41:20;100948.34;;;15.77;77.64
72086;BME280;64750;52.134;5.424;2023-09-19T03:43:47;100944.13;;;15.74;77.92
72086;BME280;64750;52.134;5.424;2023-09-19T03:46:14;100941.63;;;15.72;77.87
72086;BME280;64750;52.134;5.424;2023-09-19T03:48:41;100939.22;;;15.69;nan
72086;BME280;64750;52.134;5.424;2023-09-19T03:51:09;100937.53;;;15.68;76.87
72086;BME280;64750;52.134;5.424;2023-09-19T03:53:35;100942.38;;;15.63;76.67
72086;BME280;64750;52.134;5.424;2023-09-19T03:56:02;100945.16;;;15.62;76.68
72086;BME280;64750;52.134;5.424;2023-09-19T03:58:29;100944.28;;;15.61;76.77
72086;BME280;64750;52.134;5.424;2023-09-19T04:00:56;100955.97;;;15.58;76.42
72086;BME280;64750;52.134;5.424;2023-09-19T04:03:22;100966.56;;;15.58;76.31
72086;BME280;64750;52.134;5.424;2023-09-19T04:05:49;100967.66;;;15.56;75.88
72086;BME280;64750;52.134;5.424;2023-09-19T04:08:15;100965.00;;;15.56;75.73
72086;BME280;64750;52.134;5.424;2023-09-19T04:10:43;100964.53;;;15.51;75.39
72086;BME280;64750;52.134;5.424;2023-09-19T04:13:10;100971.78;;;15.49;75.58
72086;BME280;64750;52.134;5.424;2023-09-19T04:15:37;100977.53;;;15.42;75.12
72086;BME280;64750;52.134;5.424;2023-09-19T04:18:04;100976.72;;;15.42;75.27
72086;BME280;64750;52.134;5.424;2023-09-19T04:20:30;100983.81;;;15.41;75.49
72086;BME280;64750;52.134;5.424;2023-09-19T04:22:57;100982.72;;;15.44;75.56
72086;BME280;64750;52.134;5.424;2023-09-19T04:25:24;100988.75;;;15.46;75.19
72086;BME280;64750;52.134;5.424;2023-09-19T04:27:50;101001.38;;;15.42;75.00
72086;BME280;64750;52.134;5.424;2023-09-19T04:30:17;100997.16;;;15.40;74.95
72086;BME280;64750;52.134;5.424;2023-09-19T04:32:43;101006.41;;;15.34;74.74
72086;BME280;64750;52.134;5.424;2023-09-19T04:35:10;100999.69;;;15.30;74.84
72086;BME280;64750;52.134;5.424;2023-09-19T04:37:40;101000.53;;;15.31;74.70
72086;BME280;64750;52.134;5.424;2023-09-19T04:40:09;101017.59;;;15.26;74.73
72086;BME280;64750;52.134;5.424;2023-09-19T04:42:44;101023.63;;;15.29;74.77
72086;BME280;64750;52.134;5.424;2023-09-19T04:45:11;101028.94;;;15.29;75.14
72086;BME280;64750;52.134;5.424;2023-09-19T04:47:38;101023.16;;;15.23;74.80
72086;BME280;64750;52.134;5.424;2023-09-19T04:50:07;101026.06;;;15.20;74.27
72086;BME280;64750;52.134;5.424;2023-09-19T04:52:34;101023.28;;;15.22;74.71
72086;BME280;64750;52.134;5.424;2023-09-19T04:55:01;101013.28;;;15.25;74.75
72086;BME280;64750;52.134;5.424;2023-09-19T04:57:27;101015.22;;;15.23;74.57
72086;BME280;64750;52.134;5.424;2023-09-19T04:59:54;101015.94;;;15.25;74.79
72086;BME280;64750;52.134;5.424;2023-09-19T05:02:20;101015.34;;;15.22;74.52
72086;BME280;64750;52.134;5.424;2023-09-19T05:04:47;101019.69;;;15.23;74.79
72086;BME280;64750;52.134;5.424;2023-09-19T05:07:14;101017.84;;;15.23;74.83
72086;BME280;64750;52.134;5.424;2023-09-19T05:09:40;101020.25;;;15.26;74.48
72086;BME280;64750;52.134;5.424;2023-09-19T05:12:08;101014.38;;;15.23;74.54
72086;BME280;64750;52.134;5.424;2023-09-19T05:14:36;101020.63;;;15.22;74.54
72086;BME280;64750;52.134;5.424;2023-09-19T05:17:03;101026.13;;;15.19;74.62
72086;BME280;64750;52.134;5.424;2023-09-19T05:19:30;101029.88;;;15.16;74.52
72086;BME280;64750;52.134;5.424;2023-09-19T05:21:57;101030.59;;;15.18;74.66
72086;BME280;64750;52.134;5.424;2023-09-19T05:24:23;101020.03;;;15.18;74.81
72086;BME280;64750;52.134;5.424;2023-09-19T05:26:52;101018.94;;;15.21;75.01
72086;BME280;64750;52.134;5.424;2023-09-19T05:29:19;101027.97;;;15.18;74.90
72086;BME280;64750;52.134;5.424;2023-09-19T05:31:45;101029.53;;;15.21;74.94
72086;BME280;64750;52.134;5.424;2023-09-19T05:34:12;101021.59;;;15.21;75.01
72086;BME280;64750;52.134;5.424;2023-09-19T05:36:38;101026.88;;;15.21;75.09
72086;BME280;64750;52.134;5.424;2023-09-19T05:39:06;101009.31;;;15.20;75.30
72086;BME280;64750;52.134;5.424;2023-09-19T05:41:36;101010.50;;;15.16;75.23
72086;BME280;64750;52.134;5.424;2023-09-19T05:44:06;101011.72;;;15.12;75.21
72086;BME280;64750;52.134;5.424;2023-09-19T05:46:33;101017.22;;;15.08;75.76
72086;BME280;64750;52.134;5.424;2023-09-19T05:49:00;101022.63;;;15.07;75.86
72086;BME280;64750;52.134;5.424;2023-09-19T05:51:26;101013.75;;;15.08;75.97
72086;BME280;64750;52.134;5.424;2023-09-19T05:53:54;101015.56;;;15.07;75.74
72086;BME280;64750;52.134;5.424;2023-09-19T05:56:21;101034.19;;;15.06;75.82
72086;BME280;64750;52.134;5.424;2023-09-19T05:58:48;101034.31;;;15.04;75.82
72086;BME280;64750;52.134;5.424;2023-09-19T06:01:15;101041.41;;;15.04;76.15
72086;BME280;64750;52.134;5.424;2023-09-19T06:03:42;101021.69;;;15.08;76.22
72086;BME280;64750;52.134;5.424;2023-09-19T06:06:09;101028.88;;;15.06;76.27
72086;BME280;64750;52.134;5.424;2023-09-19T06:08:35;101045.63;;;15.06;76.21
72086;BME280;64750;52.134;5.424;2023-09-19T06:11:02;101049.00;;;15.08;76.11
72086;BME280;64750;52.134;5.424;2023-09-19T06:13:29;101049.84;;;15.09;76.48
72086;BME280;64750;52.134;5.424;2023-09-19T06:15:55;101056.94;;;15.08;76.51
72086;BME280;64750;52.134;5.424;2023-09-19T06:18:26;101053.31;;;15.09;76.53
72086;BME280;64750;52.134;5.424;2023-09-19T06:20:53;101047.31;;;15.07;76.58
72086;BME280;64750;52.134;5.424;2023-09-19T06:23:21;101057.66;;;15.11;76.68
72086;BME280;64750;52.134;5.424;2023-09-19T06:25:49;101058.50;;;15.11;76.81
72086;BME280;64750;52.134;5.424;2023-09-19T06:28:15;101063.78;;;15.11;76.53
72086;BME280;64750;52.134;5.424;2023-09-19T06:30:44;101057.78;;;15.09;76.58
72086;BME280;64750;52.134;5.424;2023-09-19T06:33:11;101059.56;;;15.08;76.90
72086;BME280;64750;52.134;5.424;2023-09-19T06:35:43;101056.72;;;15.12;77.02
72086;BME280;64750;52.134;5.424;2023-09-19T06:38:11;101045.25;;;15.11;76.97
72086;BME280;64750;52.134;5.424;2023-09-19T06:40:39;101042.75;;;15.09;77.09
72086;BME280;64750;52.134;5.424;2023-09-19T06:43:10;101047.06;;;15.11;77.14
72086;BME280;64750;52.134;5.424;2023-09-19T06:45:37;101043.34;;;15.13;77.36
72086;BME280;64750;52.134;5.424;2023-09-19T06:48:04;101039.97;;;15.11;77.16
72086;BME280;64750;52.134;5.424;2023-09-19T06:50:31;101057.41;;;15.14;77.50
72086;BME280;64750;52.134;5.424;2023-09-19T06:52:59;101048.66;;;15.13;77.71
72086;BME280;64750;52.134;5.424;2023-09-19T06:55:27;101047.06;;;15.11;77.97
72086;BME280;64750;52.134;5.424;2023-09-19T06:57:55;101040.84;;;15.12;78.05
72086;BME280;64750;52.134;5.424;2023-09-19T07:00:21;101054.91;;;15.12;78.30
72086;BME280;64750;52.134;5.424;2023-09-19T07:05:22;101046.84;;;15.14;78.74
72086;BME280;64750;52.134;5.424;2023-09-19T07:07:49;101044.94;;;15.16;79.08
72086;BME280;64750;52.134;5.424;2023-09-19T07:10:16;101036.25;;;15.14;79.04
72086;BME280;64750;52.134;5.424;2023-09-19T07:12:43;101037.94;;;15.15;79.22
72086;BME280;64750;52.134;5.424;2023-09-19T07:15:10;101043.22;;;15.15;79.31
72086;BME280;64750;52.134;5.424;2023-09-19T07:17:36;101049.00;;;15.20;79.50
72086;BME280;64750;52.134;5.424;2023-09-19T07:20:03;101054.09;;;15.23;79.38
72086;BME280;64750;52.134;5.424;2023-09-19T07:22:34;101059.28;;;15.24;79.68
72086;BME280;64750;52.134;5.424;2023-09-19T07:25:01;101061.19;;;15.22;79.46
72086;BME280;64750;52.134;5.424;2023-09-19T07:27:28;101066.47;;;15.22;79.53
72086;BME280;64750;52.134;5.424;2023-09-19T07:29:54;101072.38;;;15.26;79.60
72086;BME280;64750;52.134;5.424;2023-09-19T07:32:21;101069.13;;;15.22;79.58
72086;BME280;64750;52.134;5.424;2023-09-19T07:34:47;101076.09;;;15.23;79.44
72086;BME280;64750;52.134;5.424;2023-09-19T07:37:14;101089.97;;;15.27;79.91
72086;BME280;64750;52.134;5.424;2023-09-19T07:39:42;101073.84;;;15.30;79.74
72086;BME280;64750;52.134;5.424;2023-09-19T07:42:09;101067.44;;;15.33;79.59
72086;BME280;64750;52.134;5.424;2023-09-19T07:44:38;101085.88;;;15.34;79.30
72086;BME280;64750;52.134;5.424;2023-09-19T07:47:06;101078.41;;;15.39;79.55
72086;BME280;64750;52.134;5.424;2023-09-19T07:49:32;101072.91;;;15.42;79.29
72086;BME280;64750;52.134;5.424;2023-09-19T07:51:59;101077.94;;;15.46;79.32
72086;BME280;64750;52.134;5.424;2023-09-19T07:54:25;101069.78;;;15.49;79.18
72086;BME280;64750;52.134;5.424;2023-09-19T07:56:52;101078.34;;;15.52;79.36
72086;BME280;64750;52.134;5.424;2023-09-19T07:59:20;101081.47;;;15.57;79.67
72086;BME280;64750;52.134;5.424;2023-09-19T08:01:47;101072.31;;;15.62;79.56
72086;BME280;64750;52.134;5.424;2023-09-19T08:04:14;101071.94;;;15.66;79.40
72086;BME280;64750;52.134;5.424;2023-09-19T08:06:41;101075.19;;;15.70;79.32
72086;BME280;64750;52.134;5.424;2023-09-19T08:09:07;101085.66;;;15.71;78.89
72086;BME280;64750;52.134;5.424;2023-09-19T08:11:37;101085.56;;;15.73;78.83
72086;BME280;64750;52.134;5.424;2023-09-19T08:14:03;101082.81;;;15.74;78.95
72086;BME280;64750;52.134;5.424;2023-09-19T08:16:32;101083.41;;;15.78;79.15
72086;BME280;64750;52.134;5.424;2023-09-19T08:18:59;101079.69;;;15.81;79.00
72086;BME280;64750;52.134;5.424;2023-09-19T08:21:25;101075.09;;;15.83;79.07
72086;BME280;64750;52.134;5.424;2023-09-19T08:23:55;101073.19;;;15.85;79.06
72086;BME280;64750;52.134;5.424;2023-09-19T08:26:23;101065.97;;;15.87;79.03
72086;BME280;64750;52.134;5.424;2023-09-19T08:28:50;101077.16;;;15.90;79.41
72086;BME280;64750;52.134;5.424;2023-09-19T08:31:17;101073.41;;;15.93;79.15
72086;BME280;64750;52.134;5.424;2023-09-19T08:33:44;101073.31;;;15.95;78.98
72086;BME280;64750;52.134;5.424;2023-09-19T08:36:15;101068.03;;;15.95;79.19
72086;BME280;64750;52.134;5.424;2023-09-19T08:38:41;101066.06;;;15.97;78.99
72086;BME280;64750;52.134;5.424;2023-09-19T08:41:08;101073.91;;;15.98;79.17
72086;BME280;64750;52.134;5.424;2023-09-19T08:43:35;101070.28;;;15.99;79.33
72086;BME280;64750;52.134;5.424;2023-09-19T08:48:32;101063.53;;;16.06;79.82
72086;BME280;64750;52.134;5.424;2023-09-19T08:51:06;101068.34;;;16.13;80.05
72086;BME280;64750;52.134;5.424;2023-09-19T08:53:51;101061.56;;;16.20;79.69
72086;BME280;64750;52.134;5.424;2023-09-19T08:56:18;101051.56;;;16.23;79.36
72086;BME280;64750;52.134;5.424;2023-09-19T08:58:50;101058.44;;;16.26;78.78
72086;BME280;64750;52.134;5.424;2023-09-19T09:01:21;101065.78;;;16.34;79.06
72086;BME280;64750;52.134;5.424;2023-09-19T09:03:53;101059.13;;;16.39;78.52
72086;BME280;64750;52.134;5.424;2023-09-19T09:06:20;101056.81;;;16.46;78.39
72086;BME280;64750;52.134;5.424;2023-09-19T09:08:47;101062.97;;;16.47;78.28
72086;BME280;64750;52.134;5.424;2023-09-19T09:11:15;101062.47;;;16.53;78.48
72086;BME280;64750;52.134;5.424;2023-09-19T09:13:47;101059.66;;;16.54;78.12
72086;BME280;64750;52.134;5.424;2023-09-19T09:16:14;101056.88;;;16.56;77.67
72086;BME280;64750;52.134;5.424;2023-09-19T09:18:45;101053.41;;;16.55;77.62
72086;BME280;64750;52.134;5.424;2023-09-19T09:21:13;101059.94;;;16.51;77.68
72086;BME280;64750;52.134;5.424;2023-09-19T09:23:42;101048.22;;;16.54;77.66
72086;BME280;64750;52.134;5.424;2023-09-19T09:26:08;101054.22;;;16.56;77.71
72086;BME280;64750;52.134;5.424;2023-09-19T09:28:44;101057.63;;;16.58;77.48
72086;BME280;64750;52.134;5.424;2023-09-19T09:31:24;101039.03;;;16.58;77.44
72086;BME280;64750;52.134;5.424;2023-09-19T09:33:55;101043.53;;;16.58;77.27
72086;BME280;64750;52.134;5.424;2023-09-19T09:36:36;101035.44;;;16.59;77.26
72086;BME280;64750;52.134;5.424;2023-09-19T09:39:03;101042.28;;;16.62;77.26
72086;BME280;64750;52.134;5.424;2023-09-19T09:41:42;101036.72;;;16.65;76.70
72086;BME280;64750;52.134;5.424;2023-09-19T09:44:17;101035.47;;;16.69;76.44
72086;BME280;64750;52.134;5.424;2023-09-19T09:46:46;101042.34;;;16.71;76.23
72086;BME280;64750;52.134;5.424;2023-09-19T09:49:23;101031.50;;;16.75;76.56
72086;BME280;64750;52.134;5.424;2023-09-19T09:52:03;101028.56;;;16.78;76.94
72086;BME280;64750;52.134;5.424;2023-09-19T09:55:01;101023.84;;;16.81;76.41
72086;BME280;64750;52.134;5.424;2023-09-19T09:57:31;101018.41;;;16.83;76.21
72086;BME280;64750;52.134;5.424;2023-09-19T09:59:59;101033.38;;;16.84;76.02
72086;BME280;64750;52.134;5.424;2023-09-19T10:02:55;101025.03;;;16.88;75.75
72086;BME280;64750;52.134;5.424;2023-09-19T10:05:22;101052.22;;;16.92;75.67
72086;BME280;64750;52.134;5.424;2023-09-19T10:08:13;101046.63;;;16.95;75.65
72086;BME280;64750;52.134;5.424;2023-09-19T10:10:45;101041.03;;;16.98;75.56
72086;BME280;64750;52.134;5.424;2023-09-19T10:13:21;101034.63;;;17.01;75.51
72086;BME280;64750;52.134;5.424;2023-09-19T10:15:51;101038.28;;;17.00;75.16
72086;BME280;64750;52.134;5.424;2023-09-19T10:18:22;101049.72;;;17.00;74.34
72086;BME280;64750;52.134;5.424;2023-09-19T10:20:49;101043.59;;;17.00;75.43
72086;BME280;64750;52.134;5.424;2023-09-19T10:23:18;101036.59;;;16.99;75.30
72086;BME280;64750;52.134;5.424;2023-09-19T10:25:50;101034.63;;;17.01;75.23
72086;BME280;64750;52.134;5.424;2023-09-19T10:28:17;101031.59;;;17.05;75.56
72086;BME280;64750;52.134;5.424;2023-09-19T10:30:49;101027.19;;;17.16;75.13
72086;BME280;64750;52.134;5.424;2023-09-19T10:33:22;101017.72;;;17.23;74.57
72086;BME280;64750;52.134;5.424;2023-09-19T10:35:50;101017.47;;;17.26;74.53
72086;BME280;64750;52.134;5.424;2023-09-19T10:38:26;101009.69;;;17.34;74.37
72086;BME280;64750;52.134;5.424;2023-09-19T10:40:54;101007.06;;;17.44;75.04
72086;BME280;64750;52.134;5.424;2023-09-19T10:43:25;101000.25;;;17.51;74.46
72086;BME280;64750;52.134;5.424;2023-09-19T10:45:53;100999.28;;;17.52;73.61
72086;BME280;64750;52.134;5.424;2023-09-19T10:48:23;100998.84;;;17.47;73.66
72086;BME280;64750;52.134;5.424;2023-09-19T10:51:29;100994.34;;;17.48;74.34
72086;BME280;64750;52.134;5.424;2023-09-19T10:54:02;100990.00;;;17.47;74.07
72086;BME280;64750;52.134;5.424;2023-09-19T10:56:36;100996.44;;;17.44;73.54
72086;BME280;64750;52.134;5.424;2023-09-19T11:01:48;100981.78;;;17.50;74.44
72086;BME280;64750;52.134;5.424;2023-09-19T11:10:01;100969.53;;;17.68;74.00
72086;BME280;64750;52.134;5.424;2023-09-19T11:14:58;100972.31;;;17.67;73.01
72086;BME280;64750;52.134;5.424;2023-09-19T11:17:38;100973.44;;;17.64;73.16
72086;BME280;64750;52.134;5.424;2023-09-19T11:30:36;100959.06;;;17.77;72.89
72086;BME280;64750;52.134;5.424;2023-09-19T11:33:18;100964.38;;;17.77;72.69
72086;BME280;64750;52.134;5.424;2023-09-19T11:36:15;100972.59;;;17.74;72.55
72086;BME280;64750;52.134;5.424;2023-09-19T11:46:27;100948.25;;;17.68;72.77
72086;BME280;64750;52.134;5.424;2023-09-19T11:48:55;100940.13;;;17.70;72.85
72086;BME280;64750;52.134;5.424;2023-09-19T11:51:40;100948.44;;;17.77;73.41
72086;BME280;64750;52.134;5.424;2023-09-19T11:54:12;100931.78;;;17.84;72.53
72086;BME280;64750;52.134;5.424;2023-09-19T11:56:45;100937.53;;;17.90;71.81
72086;BME280;64750;52.134;5.424;2023-09-19T11:59:20;100936.41;;;17.92;71.63
72086;BME280;64750;52.134;5.424;2023-09-19T12:01:53;100933.50;;;17.95;71.16
72086;BME280;64750;52.134;5.424;2023-09-19T12:04:43;100947.38;;;17.99;70.13
72086;BME280;64750;52.134;5.424;2023-09-19T12:07:15;100962.34;;;18.00;70.44
72086;BME280;64750;52.134;5.424;2023-09-19T12:09:45;100966.66;;;18.01;70.08
72086;BME280;64750;52.134;5.424;2023-09-19T12:12:21;100968.50;;;18.00;70.31
72086;BME280;64750;52.134;5.424;2023-09-19T12:14:49;100958.56;;;18.02;70.75
72086;BME280;64750;52.134;5.424;2023-09-19T12:17:16;100954.50;;;18.08;70.46
72086;BME280;64750;52.134;5.424;2023-09-19T12:19:55;100964.31;;;18.08;71.26
72086;BME280;64750;52.134;5.424;2023-09-19T12:22:22;100949.47;;;18.05;70.48
72086;BME280;64750;52.134;5.424;2023-09-19T12:24:48;100950.59;;;18.02;69.49
72086;BME280;64750;52.134;5.424;2023-09-19T12:27:17;100967.66;;;18.00;70.22
72086;BME280;64750;52.134;5.424;2023-09-19T12:29:45;100940.50;;;17.96;70.06
72086;BME280;64750;52.134;5.424;2023-09-19T12:32:12;100949.59;;;17.94;69.89
72086;BME280;64750;52.134;5.424;2023-09-19T12:34:39;100955.03;;;17.92;69.96
72086;BME280;64750;52.134;5.424;2023-09-19T12:37:10;100955.03;;;17.92;69.83
72086;BME280;64750;52.134;5.424;2023-09-19T12:39:50;100945.22;;;17.93;69.85
72086;BME280;64750;52.134;5.424;2023-09-19T12:42:24;100945.13;;;17.94;70.73
72086;BME280;64750;52.134;5.424;2023-09-19T12:44:54;100954.06;;;17.93;70.53
72086;BME280;64750;52.134;5.424;2023-09-19T12:47:23;100957.81;;;17.91;70.93
72086;BME280;64750;52.134;5.424;2023-09-19T12:50:07;100956.25;;;17.88;70.40
72086;BME280;64750;52.134;5.424;2023-09-19T12:52:42;100962.59;;;17.87;70.51
72086;BME280;64750;52.134;5.424;2023-09-19T12:55:23;100956.56;;;17.85;71.71
72086;BME280;64750;52.134;5.424;2023-09-19T12:57:57;100956.41;;;17.86;72.78
72086;BME280;64750;52.134;5.424;2023-09-19T13:00:38;100953.88;;;17.85;72.41
72086;BME280;64750;52.134;5.424;2023-09-19T13:03:24;100957.25;;;17.87;72.23
72086;BME280;64750;52.134;5.424;2023-09-19T13:05:55;100956.00;;;17.91;72.17
72086;BME280;64750;52.134;5.424;2023-09-19T13:08:33;100954.06;;;17.93;72.29
72086;BME280;64750;52.134;5.424;2023-09-19T13:11:14;100956.59;;;17.95;71.75
72086;BME280;64750;52.134;5.424;2023-09-19T13:13:49;100956.19;;;17.99;72.60
72086;BME280;64750;52.134;5.424;2023-09-19T13:16:20;100945.69;;;17.98;71.51
72086;BME280;64750;52.134;5.424;2023-09-19T13:18:53;100955.50;;;17.97;72.10
72086;BME280;64750;52.134;5.424;2023-09-19T13:21:33;100961.19;;;17.93;71.98
72086;BME280;64750;52.134;5.424;2023-09-19T13:26:46;100968.72;;;17.87;73.41
72086;BME280;64750;52.134;5.424;2023-09-19T13:29:13;100971.78;;;17.83;73.11
72086;BME280;64750;52.134;5.424;2023-09-19T13:31:47;100966.75;;;17.80;72.84
72086;BME280;64750;52.134;5.424;2023-09-19T13:34:14;100952.50;;;17.81;73.43
72086;BME280;64750;52.134;5.424;2023-09-19T13:36:43;100958.22;;;17.86;72.56
72086;BME280;64750;52.134;5.424;2023-09-19T13:39:10;100955.28;;;17.89;72.94
72086;BME280;64750;52.134;5.424;2023-09-19T13:41:39;100951.41;;;17.93;73.16
72086;BME280;64750;52.134;5.424;2023-09-19T13:44:06;100953.66;;;17.98;72.76
72086;BME280;64750;52.134;5.424;2023-09-19T13:46:32;100946.41;;;18.00;72.31
72086;BME280;64750;52.134;5.424;2023-09-19T13:49:01;100949.75;;;18.02;72.59
72086;BME280;64750;52.134;5.424;2023-09-19T13:51:32;100922.88;;;18.05;72.41
72086;BME280;64750;52.134;5.424;2023-09-19T13:53:59;100927.09;;;18.08;72.29
72086;BME280;64750;52.134;5.424;2023-09-19T13:56:28;100927.91;;;18.08;72.24
72086;BME280;64750;52.134;5.424;2023-09-19T13:58:55;100922.59;;;18.08;71.58